createdAt,value
2022-12-31T00:01:29.041Z,8.43
2022-12-31T00:06:32.702Z,8.38
2022-12-31T00:11:32.225Z,8.37
2022-12-31T00:16:33.766Z,8.38
2022-12-31T00:21:35.491Z,8.35
2022-12-31T00:26:35.866Z,8.32
2022-12-31T00:31:37.136Z,8.31
2022-12-31T00:36:39.772Z,8.24
2022-12-31T00:41:39.040Z,8.22
2022-12-31T00:51:35.552Z,8.20
2022-12-31T00:56:35.907Z,8.18
2022-12-31T01:01:37.657Z,8.15
2022-12-31T01:06:36.863Z,8.12
2022-12-31T01:11:37.581Z,8.07
2022-12-31T01:16:39.298Z,8.07
2022-12-31T01:21:39.808Z,8.07
2022-12-31T01:26:40.615Z,8.05
2022-12-31T01:31:39.991Z,8.01
2022-12-31T01:36:39.518Z,7.98
2022-12-31T01:41:42.101Z,7.96
2022-12-31T01:46:44.271Z,7.92
2022-12-31T01:51:45.466Z,7.87
2022-12-31T01:56:48.620Z,7.82
2022-12-31T02:01:48.992Z,7.78
2022-12-31T02:06:51.464Z,7.72
2022-12-31T02:11:51.649Z,7.69
2022-12-31T02:16:56.760Z,7.65
2022-12-31T02:22:02.865Z,7.60
2022-12-31T02:27:10.781Z,7.55
2022-12-31T02:32:17.858Z,7.48
2022-12-31T02:37:19.613Z,7.42
2022-12-31T02:42:18.466Z,7.36
2022-12-31T02:47:34.829Z,7.33
2022-12-31T02:52:43.233Z,7.25
2022-12-31T02:57:50.060Z,7.11
2022-12-31T03:02:52.789Z,7.05
2022-12-31T03:07:51.989Z,6.95
2022-12-31T03:12:51.620Z,6.87
2022-12-31T03:17:54.167Z,6.81
2022-12-31T03:22:52.945Z,6.73
2022-12-31T03:27:51.788Z,6.66
2022-12-31T03:32:52.735Z,6.66
2022-12-31T03:37:52.908Z,6.67
2022-12-31T03:42:51.881Z,6.67
2022-12-31T03:47:52.147Z,6.66
2022-12-31T03:52:50.942Z,6.67
2022-12-31T03:57:49.853Z,6.68
2022-12-31T04:02:49.469Z,6.69
2022-12-31T04:07:52.271Z,6.69
2022-12-31T04:12:51.097Z,6.70
2022-12-31T04:17:50.484Z,6.72
2022-12-31T04:22:50.692Z,6.75
2022-12-31T04:27:49.437Z,6.78
2022-12-31T04:32:48.301Z,6.80
2022-12-31T04:37:47.140Z,6.83
2022-12-31T04:42:47.383Z,6.86
2022-12-31T04:47:46.248Z,6.83
2022-12-31T04:52:45.171Z,6.75
2022-12-31T04:57:43.937Z,6.76
2022-12-31T05:02:44.194Z,6.77
2022-12-31T05:07:43.058Z,6.78
2022-12-31T05:12:41.784Z,6.78
2022-12-31T05:17:40.665Z,6.78
2022-12-31T05:22:40.875Z,6.72
2022-12-31T05:27:40.860Z,6.68
2022-12-31T05:32:39.973Z,6.65
2022-12-31T05:37:40.180Z,6.65
2022-12-31T05:42:39.267Z,6.65
2022-12-31T05:47:38.071Z,6.62
2022-12-31T05:52:37.533Z,6.63
2022-12-31T05:57:37.790Z,6.61
2022-12-31T06:02:36.846Z,6.62
2022-12-31T06:07:36.159Z,6.61
2022-12-31T06:12:37.491Z,6.61
2022-12-31T06:17:37.014Z,6.60
2022-12-31T06:22:38.108Z,6.63
2022-12-31T06:27:40.658Z,6.65
2022-12-31T06:32:45.071Z,6.67
2022-12-31T06:37:45.406Z,6.65
2022-12-31T06:42:46.175Z,6.66
2022-12-31T06:47:44.937Z,6.69
2022-12-31T06:52:44.059Z,6.69
2022-12-31T06:57:43.377Z,6.74
2022-12-31T07:03:07.202Z,6.82
2022-12-31T07:08:23.036Z,6.87
2022-12-31T07:13:44.205Z,6.95
2022-12-31T07:18:49.150Z,6.99
2022-12-31T07:23:48.463Z,6.95
2022-12-31T07:28:59.214Z,7.03
2022-12-31T07:34:03.072Z,7.09
2022-12-31T07:39:07.068Z,7.17
2022-12-31T07:44:17.399Z,7.29
2022-12-31T07:49:19.188Z,7.34
2022-12-31T07:54:19.411Z,7.34
2022-12-31T07:59:26.236Z,7.37
2022-12-31T08:04:30.175Z,7.53
2022-12-31T08:09:44.100Z,7.57
2022-12-31T08:14:46.366Z,7.54
2022-12-31T08:19:56.883Z,7.68
2022-12-31T08:25:09.036Z,7.75
2022-12-31T08:30:12.337Z,7.87
2022-12-31T08:35:25.273Z,8.06
2022-12-31T08:40:29.192Z,8.06
2022-12-31T08:45:35.996Z,8.08
2022-12-31T08:50:36.969Z,8.13
2022-12-31T08:55:36.542Z,8.19
2022-12-31T09:00:37.760Z,8.27
2022-12-31T09:05:48.848Z,8.74
2022-12-31T09:10:55.325Z,9.28
2022-12-31T09:16:04.487Z,9.54
2022-12-31T09:21:05.127Z,10.12
2022-12-31T09:26:14.543Z,10.50
2022-12-31T09:31:18.526Z,10.77
2022-12-31T09:36:23.571Z,11.57
2022-12-31T09:42:02.053Z,11.82
2022-12-31T09:47:38.035Z,12.06
2022-12-31T09:52:53.251Z,12.39
2022-12-31T09:58:02.360Z,12.80
2022-12-31T10:03:21.395Z,13.13
2022-12-31T10:08:41.637Z,13.29
2022-12-31T10:14:07.843Z,13.57
2022-12-31T10:19:29.435Z,13.95
2022-12-31T10:24:57.930Z,14.20
2022-12-31T10:30:07.136Z,14.51
2022-12-31T10:35:25.006Z,14.50
2022-12-31T10:40:36.437Z,14.88
2022-12-31T10:45:54.152Z,15.05
2022-12-31T10:51:33.598Z,15.25
2022-12-31T10:56:55.073Z,16.18
2022-12-31T11:02:11.186Z,16.70
2022-12-31T11:07:54.776Z,16.95
2022-12-31T11:13:40.918Z,17.00
2022-12-31T11:18:49.085Z,17.20
2022-12-31T11:23:57.873Z,17.03
2022-12-31T11:29:15.955Z,17.78
2022-12-31T11:34:33.263Z,17.60
2022-12-31T11:39:46.163Z,17.36
2022-12-31T11:44:51.098Z,17.15
2022-12-31T11:50:07.826Z,17.35
2022-12-31T11:55:24.559Z,18.26
2022-12-31T12:00:25.931Z,17.75
2022-12-31T12:05:27.503Z,17.66
2022-12-31T12:10:35.613Z,17.96
2022-12-31T12:15:36.425Z,17.92
2022-12-31T12:20:39.945Z,18.15
2022-12-31T12:25:41.330Z,19.29
2022-12-31T12:30:41.702Z,19.94
2022-12-31T12:35:42.152Z,20.31
2022-12-31T12:40:41.880Z,20.43
2022-12-31T12:45:49.176Z,20.56
2022-12-31T12:50:52.195Z,20.65
2022-12-31T12:56:03.735Z,20.20
2022-12-31T13:01:11.809Z,19.73
2022-12-31T13:06:28.377Z,19.74
2022-12-31T13:11:38.393Z,19.91
2022-12-31T13:16:44.855Z,19.68
2022-12-31T13:21:56.538Z,19.91
2022-12-31T13:27:00.272Z,19.98
2022-12-31T13:32:03.166Z,19.40
2022-12-31T13:37:08.075Z,19.27
2022-12-31T13:42:14.393Z,19.79
2022-12-31T13:47:18.504Z,19.77
2022-12-31T13:52:28.970Z,20.05
2022-12-31T13:57:41.974Z,19.98
2022-12-31T14:02:47.478Z,19.97
2022-12-31T14:07:52.560Z,20.04
2022-12-31T14:12:57.681Z,19.85
2022-12-31T14:18:04.143Z,19.84
2022-12-31T14:23:17.917Z,19.90
2022-12-31T14:28:20.891Z,19.86
2022-12-31T14:33:45.652Z,19.79
2022-12-31T14:39:06.777Z,19.49
2022-12-31T14:44:19.874Z,19.16
2022-12-31T14:49:43.531Z,18.86
2022-12-31T14:54:44.357Z,18.40
2022-12-31T14:59:54.191Z,17.98
2022-12-31T15:05:04.167Z,17.71
2022-12-31T15:10:17.262Z,17.26
2022-12-31T15:15:29.453Z,16.84
2022-12-31T15:20:49.395Z,16.50
2022-12-31T15:25:53.151Z,16.26
2022-12-31T15:30:52.950Z,16.05
2022-12-31T15:35:54.239Z,15.84
2022-12-31T15:40:54.652Z,15.64
2022-12-31T15:45:56.132Z,15.43
2022-12-31T15:50:59.863Z,15.18
2022-12-31T15:56:02.053Z,14.98
2022-12-31T16:01:10.163Z,14.70
2022-12-31T16:06:13.761Z,14.54
2022-12-31T16:11:14.132Z,14.28
2022-12-31T16:16:24.743Z,14.04
2022-12-31T16:21:30.584Z,13.95
2022-12-31T16:26:38.240Z,13.84
2022-12-31T16:31:37.075Z,13.65
2022-12-31T16:36:36.660Z,13.53
2022-12-31T16:41:44.468Z,13.47
2022-12-31T16:46:43.405Z,13.35
2022-12-31T16:51:43.138Z,13.27
2022-12-31T16:56:44.982Z,13.18
2022-12-31T17:01:44.571Z,13.08
2022-12-31T17:06:44.637Z,12.99
2022-12-31T17:11:53.264Z,12.93
2022-12-31T17:17:03.477Z,12.88
2022-12-31T17:22:04.591Z,12.81
2022-12-31T17:27:08.025Z,12.72
2022-12-31T17:32:11.306Z,12.63
2022-12-31T17:37:18.680Z,12.62
2022-12-31T17:42:35.057Z,12.50
2022-12-31T17:47:39.514Z,12.43
2022-12-31T17:52:38.659Z,12.33
2022-12-31T17:57:39.139Z,12.23
2022-12-31T18:02:38.224Z,12.12
2022-12-31T18:07:39.741Z,12.04
2022-12-31T18:12:40.389Z,11.97
2022-12-31T18:17:39.276Z,11.89
2022-12-31T18:22:38.396Z,11.78
2022-12-31T18:27:42.158Z,11.71
2022-12-31T18:32:42.171Z,11.63
2022-12-31T18:37:40.981Z,11.55
2022-12-31T18:42:41.486Z,11.50
2022-12-31T18:47:40.346Z,11.39
2022-12-31T18:52:39.267Z,11.37
2022-12-31T18:57:37.969Z,11.35
2022-12-31T19:02:38.219Z,11.36
2022-12-31T19:07:37.476Z,11.37
2022-12-31T19:12:36.262Z,11.41
2022-12-31T19:17:35.072Z,11.39
2022-12-31T19:22:35.277Z,11.38
2022-12-31T19:27:34.029Z,11.32
2022-12-31T19:32:32.810Z,11.22
2022-12-31T19:37:31.589Z,11.14
2022-12-31T19:42:31.890Z,11.08
2022-12-31T19:47:30.639Z,11.18
2022-12-31T19:52:29.366Z,11.19
2022-12-31T19:57:28.144Z,11.20
2022-12-31T20:02:28.638Z,11.12
2022-12-31T20:07:27.635Z,11.00
2022-12-31T20:12:26.534Z,10.97
2022-12-31T20:17:25.893Z,11.00
2022-12-31T20:22:26.203Z,11.02
2022-12-31T20:27:25.172Z,10.75
2022-12-31T20:32:24.067Z,10.91
2022-12-31T20:37:22.874Z,10.99
2022-12-31T20:42:23.012Z,10.96
2022-12-31T20:47:21.956Z,10.97
2022-12-31T20:52:20.735Z,10.98
2022-12-31T20:57:19.474Z,11.03
2022-12-31T21:02:29.520Z,10.99
2022-12-31T21:07:38.207Z,11.02
2022-12-31T21:12:53.134Z,11.05
2022-12-31T21:17:53.509Z,11.09
2022-12-31T21:22:52.281Z,11.00
2022-12-31T21:27:51.108Z,10.95
2022-12-31T21:32:50.076Z,10.91
2022-12-31T21:37:58.629Z,10.84
2022-12-31T21:42:59.839Z,10.64
2022-12-31T21:48:17.563Z,10.66
2022-12-31T21:53:23.719Z,10.60
2022-12-31T21:58:26.507Z,10.51
2022-12-31T22:03:27.821Z,10.52
2022-12-31T22:08:29.934Z,10.54
2022-12-31T22:13:28.885Z,10.46
2022-12-31T22:18:28.663Z,10.50
2022-12-31T22:23:30.215Z,10.38
2022-12-31T22:28:38.993Z,10.24
2022-12-31T22:33:38.220Z,10.30
2022-12-31T22:38:38.354Z,10.33
2022-12-31T22:43:40.056Z,10.33
2022-12-31T22:48:39.219Z,10.33
2022-12-31T22:53:41.354Z,10.32
2022-12-31T22:58:40.479Z,10.28
2022-12-31T23:03:39.385Z,10.26
2022-12-31T23:08:39.822Z,10.24
2022-12-31T23:13:58.163Z,10.05
2022-12-31T23:19:14.514Z,10.04
2022-12-31T23:24:21.389Z,10.00
2022-12-31T23:29:21.761Z,10.01
2022-12-31T23:34:20.982Z,9.99
2022-12-31T23:39:21.249Z,9.98
2022-12-31T23:44:20.193Z,9.98
2022-12-31T23:49:18.944Z,9.95
2022-12-31T23:54:17.984Z,9.90
2022-12-31T23:59:18.581Z,9.83
